TimeEDT,TemperatureF,Dew PointF,Humidity,Sea Level PressureIn,VisibilityMPH,Wind Direction,Wind SpeedMPH,Gust SpeedMPH,PrecipitationIn,Events,Conditions,WindDirDegrees,DateUTC
12:53 AM,48.9,45.0,86,30.27,10.0,Calm,Calm,-,N/A,,Clear,0,2013-04-21 04:53:00
1:53 AM,46.9,44.1,90,30.28,10.0,Calm,Calm,-,N/A,,Clear,0,2013-04-21 05:53:00
2:53 AM,46.9,44.1,90,30.28,10.0,Calm,Calm,-,N/A,,Clear,0,2013-04-21 06:53:00
3:53 AM,46.0,44.1,93,30.28,10.0,Calm,Calm,-,N/A,,Clear,0,2013-04-21 07:53:00
4:53 AM,46.0,43.0,89,30.29,10.0,Calm,Calm,-,N/A,,Clear,0,2013-04-21 08:53:00
5:53 AM,45.0,43.0,93,30.31,10.0,Calm,Calm,-,N/A,,Clear,0,2013-04-21 09:53:00
6:53 AM,45.0,42.1,90,30.34,10.0,Variable,3.5,-,N/A,,Clear,0,2013-04-21 10:53:00
7:53 AM,48.0,44.1,86,30.37,10.0,Calm,Calm,-,N/A,,Clear,0,2013-04-21 11:53:00
8:53 AM,53.1,43.0,69,30.38,10.0,NE,4.6,-,N/A,,Clear,50,2013-04-21 12:53:00
9:53 AM,59.0,41.0,51,30.39,10.0,Variable,6.9,-,N/A,,Clear,0,2013-04-21 13:53:00
10:53 AM,63.0,37.0,38,30.39,10.0,NE,10.4,-,N/A,,Clear,50,2013-04-21 14:53:00
11:53 AM,64.9,37.0,36,30.38,10.0,Variable,5.8,-,N/A,,Clear,0,2013-04-21 15:53:00
12:53 PM,66.9,37.0,33,30.38,10.0,East,9.2,-,N/A,,Clear,100,2013-04-21 16:53:00
1:53 PM,68.0,37.0,32,30.37,10.0,East,8.1,-,N/A,,Clear,80,2013-04-21 17:53:00
2:53 PM,69.1,37.0,31,30.35,10.0,ESE,9.2,-,N/A,,Clear,120,2013-04-21 18:53:00
3:53 PM,70.0,37.9,31,30.32,10.0,East,8.1,-,N/A,,Clear,90,2013-04-21 19:53:00
4:53 PM,69.1,37.9,32,30.32,10.0,ENE,8.1,-,N/A,,Partly Cloudy,70,2013-04-21 20:53:00
5:53 PM,69.1,37.0,31,30.31,10.0,Variable,5.8,-,N/A,,Clear,0,2013-04-21 21:53:00
6:53 PM,66.9,39.0,36,30.32,10.0,Variable,4.6,-,N/A,,Partly Cloudy,0,2013-04-21 22:53:00
7:53 PM,64.0,39.9,41,30.34,10.0,Calm,Calm,-,N/A,,Clear,0,2013-04-21 23:53:00
8:53 PM,61.0,41.0,48,30.36,10.0,Calm,Calm,-,N/A,,Clear,0,2013-04-22 00:53:00
9:53 PM,61.0,41.0,48,30.37,10.0,Variable,5.8,-,N/A,,Mostly Cloudy,0,2013-04-22 01:53:00
10:53 PM,59.0,41.0,51,30.37,10.0,ENE,4.6,16.1,N/A,,Clear,70,2013-04-22 02:53:00
11:53 PM,57.0,42.1,57,30.36,10.0,Variable,5.8,-,N/A,,Clear,0,2013-04-22 03:53:00